Time;durP1;ratioP1;P1;durP2;ratioP2;P2;SDS_P1;SDS_P2;PMS_P1;PMS_P2;Temp;Humidity;BMP_temperature;BMP_pressure;BME280_temperature;BME280_humidity;BME280_pressure;Samples;Min_cycle;Max_cycle;Signal;HPM_P1;HPM_P2
2024/02/19 00:01:45;;;;;;;26.33;13.82;;;;;;;;;;6265312;28;20513;-77
2024/02/19 00:04:47;;;;;;;25.80;15.20;;;;;;;;;;6251662;28;20060;-77
2024/02/19 00:07:50;;;;;;;27.98;14.68;;;;;;;;;;6293592;28;20045;-76
2024/02/19 00:10:53;;;;;;;32.13;14.98;;;;;;;;;;6294473;28;20065;-77
2024/02/19 00:13:56;;;;;;;33.10;15.95;;;;;;;;;;6321370;28;20044;-77
2024/02/19 00:16:59;;;;;;;31.63;15.43;;;;;;;;;;6313677;28;20045;-79
2024/02/19 00:20:02;;;;;;;29.55;16.08;;;;;;;;;;6276284;28;20434;-77
2024/02/19 00:23:04;;;;;;;27.42;15.48;;;;;;;;;;6252162;28;20097;-76
2024/02/19 00:26:07;;;;;;;34.72;15.48;;;;;;;;;;6280910;28;20051;-76
2024/02/19 00:29:09;;;;;;;29.05;16.15;;;;;;;;;;6280471;28;20394;-76
2024/02/19 00:32:11;;;;;;;28.25;13.43;;;;;;;;;;6268627;28;20253;-76
2024/02/19 00:35:13;;;;;;;30.23;15.13;;;;;;;;;;6278403;28;20491;-76
2024/02/19 00:38:15;;;;;;;30.35;15.60;;;;;;;;;;6281633;28;20038;-76
2024/02/19 00:41:19;;;;;;;25.75;15.23;;;;;;;;;;6229297;28;20049;-76
2024/02/19 00:44:22;;;;;;;27.33;15.95;;;;;;;;;;6276501;28;20049;-76
2024/02/19 00:47:24;;;;;;;27.23;14.38;;;;;;;;;;6265053;28;20053;-76
2024/02/19 00:50:26;;;;;;;24.15;14.93;;;;;;;;;;6280784;28;20140;-75
2024/02/19 00:53:29;;;;;;;25.45;13.60;;;;;;;;;;6259857;28;20775;-76
2024/02/19 00:56:33;;;;;;;27.73;14.38;;;;;;;;;;6247085;28;20047;-77
2024/02/19 00:59:36;;;;;;;28.67;15.43;;;;;;;;;;6247252;28;20847;-77
2024/02/19 01:02:40;;;;;;;23.17;13.90;;;;;;;;;;6258220;28;20589;-75
2024/02/19 01:05:42;;;;;;;25.20;14.60;;;;;;;;;;6244340;28;20037;-76
2024/02/19 01:08:46;;;;;;;24.02;14.77;;;;;;;;;;6258277;28;20102;-76
2024/02/19 01:11:48;;;;;;;25.20;13.73;;;;;;;;;;6278861;28;20055;-77
2024/02/19 01:14:58;;;;;;;22.15;13.30;;;;;;;;;;6241455;28;20087;-77
2024/02/19 01:18:01;;;;;;;25.15;13.50;;;;;;;;;;6223092;28;20047;-77
2024/02/19 01:21:03;;;;;;;29.05;13.63;;;;;;;;;;6257829;28;20049;-76
2024/02/19 01:24:07;;;;;;;27.20;13.60;;;;;;;;;;6258835;28;20063;-76
2024/02/19 01:27:10;;;;;;;23.50;14.40;;;;;;;;;;6231553;28;20090;-77
2024/02/19 01:30:13;;;;;;;26.80;14.90;;;;;;;;;;6259510;28;20040;-77
2024/02/19 01:33:16;;;;;;;26.25;14.38;;;;;;;;;;6278935;28;20049;-77
2024/02/19 01:36:19;;;;;;;28.17;14.85;;;;;;;;;;6244862;28;20073;-77
2024/02/19 01:39:21;;;;;;;25.13;13.85;;;;;;;;;;6248504;28;20056;-77
2024/02/19 01:42:24;;;;;;;25.05;13.82;;;;;;;;;;6249796;28;20444;-77
2024/02/19 01:45:26;;;;;;;28.60;14.30;;;;;;;;;;6245062;28;20540;-77
2024/02/19 01:48:28;;;;;;;28.02;14.77;;;;;;;;;;6248102;28;20119;-77
2024/02/19 01:51:31;;;;;;;23.58;13.90;;;;;;;;;;6236032;28;20055;-77
2024/02/19 01:54:35;;;;;;;23.13;13.40;;;;;;;;;;6260337;28;20044;-77
2024/02/19 01:57:39;;;;;;;25.73;14.23;;;;;;;;;;6264532;28;20048;-77
2024/02/19 02:00:42;;;;;;;25.90;13.90;;;;;;;;;;6263832;28;20051;-78
2024/02/19 02:03:46;;;;;;;21.83;13.38;;;;;;;;;;6234170;28;20067;-77
2024/02/19 02:06:49;;;;;;;23.85;13.20;;;;;;;;;;6261138;28;20052;-77
2024/02/19 02:09:51;;;;;;;24.55;12.18;;;;;;;;;;6248419;28;20053;-76
2024/02/19 02:12:53;;;;;;;22.88;13.35;;;;;;;;;;6275167;28;20059;-77
2024/02/19 02:15:55;;;;;;;25.42;12.30;;;;;;;;;;6272678;28;20060;-77
2024/02/19 02:18:58;;;;;;;25.67;12.80;;;;;;;;;;6281024;28;20064;-78
2024/02/19 02:22:01;;;;;;;25.35;12.38;;;;;;;;;;6263300;28;20457;-77
2024/02/19 02:25:04;;;;;;;33.33;14.68;;;;;;;;;;6261339;28;20044;-77
2024/02/19 02:28:06;;;;;;;25.88;14.05;;;;;;;;;;6280261;28;20557;-77
2024/02/19 02:31:08;;;;;;;23.50;14.25;;;;;;;;;;6288186;28;20052;-77
2024/02/19 02:34:11;;;;;;;26.38;14.25;;;;;;;;;;6249373;28;20135;-76
2024/02/19 02:37:14;;;;;;;39.58;20.20;;;;;;;;;;6276435;28;20041;-77
2024/02/19 02:40:17;;;;;;;33.15;15.70;;;;;;;;;;6312137;28;20064;-77
2024/02/19 02:43:20;;;;;;;28.83;14.05;;;;;;;;;;6286075;28;20049;-77
2024/02/19 02:46:22;;;;;;;28.42;16.45;;;;;;;;;;6271109;28;20049;-77
2024/02/19 02:49:24;;;;;;;35.97;18.23;;;;;;;;;;6283935;28;20052;-77
2024/02/19 02:52:27;;;;;;;32.90;17.05;;;;;;;;;;6285316;28;20052;-77
2024/02/19 02:55:29;;;;;;;34.17;16.30;;;;;;;;;;6290701;28;20053;-77
2024/02/19 02:58:33;;;;;;;34.25;18.80;;;;;;;;;;6274070;28;20052;-77
2024/02/19 03:01:36;;;;;;;33.25;17.05;;;;;;;;;;6276297;28;20044;-78
2024/02/19 03:04:38;;;;;;;33.78;18.92;;;;;;;;;;6269114;28;20045;-79
2024/02/19 03:07:40;;;;;;;33.05;18.42;;;;;;;;;;6259858;28;20132;-78
2024/02/19 03:10:44;;;;;;;27.25;14.93;;;;;;;;;;6278131;28;20044;-79
2024/02/19 03:13:49;;;;;;;32.05;13.65;;;;;;;;;;6270139;28;20056;-79
2024/02/19 03:16:51;;;;;;;30.60;15.77;;;;;;;;;;6250584;28;20048;-78
2024/02/19 03:19:53;;;;;;;29.40;15.85;;;;;;;;;;6267734;28;20049;-78
2024/02/19 03:22:55;;;;;;;27.23;17.23;;;;;;;;;;6270633;28;20056;-78
2024/02/19 03:25:57;;;;;;;25.83;13.52;;;;;;;;;;6249869;28;20101;-78
2024/02/19 03:29:00;;;;;;;25.13;14.23;;;;;;;;;;6275333;28;20044;-78
2024/02/19 03:32:03;;;;;;;25.58;14.23;;;;;;;;;;6284006;28;20053;-78
2024/02/19 03:35:05;;;;;;;28.90;14.85;;;;;;;;;;6244563;28;20040;-78
2024/02/19 03:38:09;;;;;;;26.00;14.68;;;;;;;;;;6256499;28;20578;-78
2024/02/19 03:41:12;;;;;;;22.80;14.52;;;;;;;;;;6268013;28;20133;-78
2024/02/19 03:44:15;;;;;;;24.65;16.17;;;;;;;;;;6260572;28;20095;-78
2024/02/19 03:47:18;;;;;;;27.67;15.95;;;;;;;;;;6281467;28;20056;-78
2024/02/19 03:50:23;;;;;;;24.70;13.43;;;;;;;;;;6251760;28;20143;-77
2024/02/19 03:53:26;;;;;;;28.80;15.27;;;;;;;;;;6269248;28;20124;-78
2024/02/19 03:56:28;;;;;;;30.33;16.95;;;;;;;;;;6266548;28;20056;-77
2024/02/19 03:59:31;;;;;;;30.60;17.15;;;;;;;;;;6282450;28;20049;-77
2024/02/19 04:02:36;;;;;;;15.15;9.02;;;;;;;;;;6249806;28;20051;-77
2024/02/19 04:05:38;;;;;;;25.20;15.98;;;;;;;;;;6257305;28;20552;-77
2024/02/19 04:08:40;;;;;;;28.40;16.63;;;;;;;;;;6254566;28;20068;-77
2024/02/19 04:11:44;;;;;;;37.72;22.00;;;;;;;;;;6279190;28;20095;-77
2024/02/19 04:14:46;;;;;;;37.17;18.88;;;;;;;;;;6263690;28;20556;-76
2024/02/19 04:17:49;;;;;;;33.63;18.45;;;;;;;;;;6247887;28;20442;-75
2024/02/19 04:20:52;;;;;;;33.25;17.45;;;;;;;;;;6280387;28;20136;-76
2024/02/19 04:23:55;;;;;;;33.78;21.02;;;;;;;;;;6261913;28;20951;-76
2024/02/19 04:26:58;;;;;;;33.95;19.08;;;;;;;;;;6240192;28;20891;-76
2024/02/19 04:30:01;;;;;;;33.03;18.20;;;;;;;;;;6260314;28;20674;-76
2024/02/19 04:33:04;;;;;;;29.15;19.65;;;;;;;;;;6258808;28;20063;-76
2024/02/19 04:36:07;;;;;;;37.25;22.05;;;;;;;;;;6252961;28;20075;-77
2024/02/19 04:39:10;;;;;;;41.40;22.52;;;;;;;;;;6260828;28;20068;-77
2024/02/19 04:42:13;;;;;;;41.90;25.80;;;;;;;;;;6276285;28;20071;-77
2024/02/19 04:45:16;;;;;;;58.90;33.08;;;;;;;;;;6252558;28;20053;-77
2024/02/19 04:48:20;;;;;;;57.70;36.90;;;;;;;;;;6261963;28;20044;-77
2024/02/19 04:51:25;;;;;;;41.58;25.63;;;;;;;;;;6262566;28;20856;-76
2024/02/19 04:54:28;;;;;;;40.72;23.73;;;;;;;;;;6244516;28;20573;-76
2024/02/19 04:57:30;;;;;;;39.85;22.13;;;;;;;;;;6247978;28;20051;-76
2024/02/19 05:00:33;;;;;;;45.60;25.00;;;;;;;;;;6282243;28;20744;-76
2024/02/19 05:03:36;;;;;;;45.78;26.02;;;;;;;;;;6256889;28;20090;-76
2024/02/19 05:06:40;;;;;;;40.83;23.38;;;;;;;;;;6235353;28;20056;-76
2024/02/19 05:09:43;;;;;;;50.53;25.67;;;;;;;;;;6264279;28;20477;-76
2024/02/19 05:12:46;;;;;;;44.40;26.70;;;;;;;;;;6265228;28;20068;-76
2024/02/19 05:15:48;;;;;;;46.72;23.75;;;;;;;;;;6280396;28;20063;-76
2024/02/19 05:18:50;;;;;;;46.10;23.50;;;;;;;;;;6279670;28;20214;-76
2024/02/19 05:21:54;;;;;;;44.83;27.15;;;;;;;;;;6253215;28;20040;-77
2024/02/19 05:24:56;;;;;;;35.70;20.92;;;;;;;;;;6283060;28;20053;-76
2024/02/19 05:27:58;;;;;;;44.88;24.95;;;;;;;;;;6242605;28;20083;-76
2024/02/19 05:31:01;;;;;;;41.00;22.02;;;;;;;;;;6241542;28;20048;-76
2024/02/19 05:34:05;;;;;;;45.58;22.13;;;;;;;;;;6240161;28;20120;-77
2024/02/19 05:37:07;;;;;;;42.47;23.38;;;;;;;;;;6263535;28;20072;-77
2024/02/19 05:40:13;;;;;;;36.13;21.38;;;;;;;;;;6276937;28;20044;-77
2024/02/19 05:43:15;;;;;;;42.60;19.88;;;;;;;;;;6243211;28;20453;-77
2024/02/19 05:46:18;;;;;;;35.35;19.10;;;;;;;;;;6280630;28;20147;-77
2024/02/19 05:49:20;;;;;;;35.13;20.38;;;;;;;;;;6251573;28;20570;-76
2024/02/19 05:52:23;;;;;;;39.13;22.08;;;;;;;;;;6239891;28;20766;-77
2024/02/19 05:55:25;;;;;;;31.65;21.00;;;;;;;;;;6245966;28;20057;-77
2024/02/19 05:58:31;;;;;;;32.85;19.55;;;;;;;;;;6242370;28;20040;-77
2024/02/19 06:01:33;;;;;;;33.88;19.52;;;;;;;;;;6257544;28;20191;-76
2024/02/19 06:04:37;;;;;;;38.83;21.08;;;;;;;;;;6263022;28;20072;-77
2024/02/19 06:07:39;;;;;;;33.70;18.27;;;;;;;;;;6266682;28;20040;-77
2024/02/19 06:10:45;;;;;;;31.30;19.73;;;;;;;;;;6271571;28;20048;-76
2024/02/19 06:13:48;;;;;;;;;;;;;;;;;;6272085;28;20065;-79
2024/02/19 06:16:50;;;;;;;41.20;24.35;;;;;;;;;;6274707;28;20005;-78
2024/02/19 06:19:52;;;;;;;57.28;30.02;;;;;;;;;;6257463;28;20043;-77
2024/02/19 06:22:54;;;;;;;79.03;41.25;;;;;;;;;;6246962;28;20049;-77
2024/02/19 06:25:56;;;;;;;54.38;30.65;;;;;;;;;;6258331;28;20056;-77
2024/02/19 06:29:06;;;;;;;50.50;30.13;;;;;;;;;;6277306;28;20203;-81
2024/02/19 06:32:12;;;;;;;57.65;33.78;;;;;;;;;;6276549;28;20045;-77
2024/02/19 06:35:15;;;;;;;59.00;35.10;;;;;;;;;;6245971;28;20044;-77
2024/02/19 06:38:17;;;;;;;69.55;31.50;;;;;;;;;;6271508;28;20210;-78
2024/02/19 06:41:21;;;;;;;47.88;25.63;;;;;;;;;;6284575;28;20074;-78
2024/02/19 06:44:24;;;;;;;45.40;26.17;;;;;;;;;;6268769;28;20690;-77
2024/02/19 06:47:26;;;;;;;44.97;23.30;;;;;;;;;;6243773;28;20056;-76
2024/02/19 06:50:29;;;;;;;45.10;24.98;;;;;;;;;;6279854;28;20040;-77
2024/02/19 06:53:31;;;;;;;38.85;22.27;;;;;;;;;;6257352;28;20139;-77
2024/02/19 06:56:34;;;;;;;35.80;21.42;;;;;;;;;;6264211;28;20055;-78
2024/02/19 06:59:37;;;;;;;33.88;21.38;;;;;;;;;;6243666;28;20557;-77
2024/02/19 07:02:39;;;;;;;33.03;20.90;;;;;;;;;;6248450;28;20847;-76
2024/02/19 07:05:44;;;;;;;32.28;19.15;;;;;;;;;;6245352;28;20044;-77
2024/02/19 07:08:47;;;;;;;32.75;20.10;;;;;;;;;;6250690;28;20047;-77
2024/02/19 07:11:49;;;;;;;42.45;23.15;;;;;;;;;;6270192;28;20056;-77
2024/02/19 07:14:51;;;;;;;42.10;24.50;;;;;;;;;;6265178;28;20808;-77
2024/02/19 07:17:53;;;;;;;37.55;21.55;;;;;;;;;;6266889;28;20427;-76
2024/02/19 07:20:57;;;;;;;35.97;20.65;;;;;;;;;;6264460;28;20110;-76
2024/02/19 07:23:59;;;;;;;35.17;18.90;;;;;;;;;;6283247;28;20052;-76
2024/02/19 07:27:01;;;;;;;36.38;21.73;;;;;;;;;;6268381;28;20056;-76
2024/02/19 07:30:03;;;;;;;39.60;21.27;;;;;;;;;;6264475;28;20037;-76
2024/02/19 07:33:05;;;;;;;40.70;21.95;;;;;;;;;;6263034;28;20049;-76
2024/02/19 07:36:08;;;;;;;42.42;26.50;;;;;;;;;;6285352;28;20633;-76
2024/02/19 07:39:11;;;;;;;36.90;20.95;;;;;;;;;;6242114;28;20044;-77
2024/02/19 07:42:14;;;;;;;44.55;23.98;;;;;;;;;;6245483;28;20059;-76
2024/02/19 07:45:17;;;;;;;42.25;23.58;;;;;;;;;;6246186;28;20083;-76
2024/02/19 07:48:19;;;;;;;33.35;19.63;;;;;;;;;;6265445;28;20131;-76
2024/02/19 07:51:22;;;;;;;36.83;20.27;;;;;;;;;;6287060;28;20055;-77
2024/02/19 07:54:25;;;;;;;32.72;17.05;;;;;;;;;;6264375;28;20421;-76
2024/02/19 07:57:29;;;;;;;33.17;19.52;;;;;;;;;;6248301;28;20198;-76
2024/02/19 08:00:31;;;;;;;33.38;19.23;;;;;;;;;;6282442;28;20460;-76
2024/02/19 08:03:34;;;;;;;34.10;20.13;;;;;;;;;;6269364;28;20080;-76
2024/02/19 08:06:36;;;;;;;35.78;20.10;;;;;;;;;;6249271;28;20441;-76
2024/02/19 08:09:38;;;;;;;30.85;17.23;;;;;;;;;;6265354;28;20529;-76
2024/02/19 08:12:41;;;;;;;31.73;17.48;;;;;;;;;;6254939;28;20537;-75
2024/02/19 08:15:44;;;;;;;42.80;24.25;;;;;;;;;;6291663;28;20606;-76
2024/02/19 08:18:47;;;;;;;36.53;21.00;;;;;;;;;;6259249;28;20072;-77
2024/02/19 08:21:49;;;;;;;40.00;23.95;;;;;;;;;;6270996;28;20612;-78
2024/02/19 08:24:51;;;;;;;44.10;22.98;;;;;;;;;;6262682;28;20041;-77
2024/02/19 08:27:54;;;;;;;36.83;21.92;;;;;;;;;;6267787;28;20709;-77
2024/02/19 08:30:57;;;;;;;40.90;22.75;;;;;;;;;;6262822;28;20133;-76
2024/02/19 08:34:00;;;;;;;43.65;29.15;;;;;;;;;;6254501;28;20291;-76
2024/02/19 08:37:05;;;;;;;41.30;25.52;;;;;;;;;;6251268;28;20050;-78
2024/02/19 08:40:08;;;;;;;46.70;27.42;;;;;;;;;;6249732;28;20117;-77
2024/02/19 08:43:11;;;;;;;42.53;28.23;;;;;;;;;;6245877;28;20045;-77
2024/02/19 08:46:15;;;;;;;38.85;21.98;;;;;;;;;;6261718;28;20593;-76
2024/02/19 08:49:18;;;;;;;38.08;22.60;;;;;;;;;;6275187;28;20074;-76
2024/02/19 08:52:21;;;;;;;38.72;21.23;;;;;;;;;;6291085;28;20044;-77
2024/02/19 08:55:24;;;;;;;35.08;19.98;;;;;;;;;;6280992;28;20123;-76
2024/02/19 08:58:30;;;;;;;35.42;21.08;;;;;;;;;;6297952;28;20075;-78
2024/02/19 09:01:34;;;;;;;33.92;18.45;;;;;;;;;;6268554;28;20053;-77
2024/02/19 09:04:37;;;;;;;35.42;19.05;;;;;;;;;;6269738;28;20121;-77
2024/02/19 09:07:41;;;;;;;31.98;18.33;;;;;;;;;;6271101;28;20087;-78
2024/02/19 09:10:44;;;;;;;30.92;17.10;;;;;;;;;;6267994;28;20100;-77
2024/02/19 09:13:49;;;;;;;29.05;15.23;;;;;;;;;;6266164;28;20055;-77
2024/02/19 09:16:52;;;;;;;32.03;13.65;;;;;;;;;;6251361;28;20052;-77
2024/02/19 09:19:54;;;;;;;24.95;12.88;;;;;;;;;;6264061;28;20104;-77
2024/02/19 09:22:57;;;;;;;28.17;14.88;;;;;;;;;;6277333;28;20312;-77
2024/02/19 09:26:00;;;;;;;33.22;15.95;;;;;;;;;;6277061;28;20044;-76
2024/02/19 09:29:03;;;;;;;22.67;13.43;;;;;;;;;;6282434;28;20378;-75
2024/02/19 09:32:06;;;;;;;23.23;11.45;;;;;;;;;;6282607;28;20837;-76
2024/02/19 09:35:08;;;;;;;24.10;12.15;;;;;;;;;;6275505;28;20117;-75
2024/02/19 09:38:11;;;;;;;26.65;13.70;;;;;;;;;;6278440;28;20094;-77
2024/02/19 09:41:13;;;;;;;25.13;12.88;;;;;;;;;;6275309;28;20112;-76
2024/02/19 09:44:15;;;;;;;20.40;11.32;;;;;;;;;;6268331;28;20165;-77
2024/02/19 09:47:19;;;;;;;26.00;12.73;;;;;;;;;;6264045;28;20045;-75
2024/02/19 09:50:22;;;;;;;21.88;12.07;;;;;;;;;;6273085;28;20047;-76
2024/02/19 09:53:29;;;;;;;29.85;15.57;;;;;;;;;;6292147;28;20048;-77
2024/02/19 09:56:33;;;;;;;31.35;15.82;;;;;;;;;;6302745;28;20052;-75
2024/02/19 09:59:37;;;;;;;28.10;15.27;;;;;;;;;;6278178;28;20509;-75
2024/02/19 10:02:39;;;;;;;33.28;18.05;;;;;;;;;;6282649;28;20085;-77
2024/02/19 10:05:42;;;;;;;23.35;12.38;;;;;;;;;;6269050;28;20694;-75
2024/02/19 10:08:45;;;;;;;27.05;13.93;;;;;;;;;;6257163;28;20068;-74
2024/02/19 10:11:52;;;;;;;31.70;16.38;;;;;;;;;;6288539;28;20050;-76
2024/02/19 10:14:58;;;;;;;24.38;12.77;;;;;;;;;;6276502;28;20500;-77
2024/02/19 10:18:17;;;;;;;22.40;11.35;;;;;;;;;;6269940;28;20125;-77
2024/02/19 10:21:20;;;;;;;23.90;13.63;;;;;;;;;;6249940;28;20648;-76
2024/02/19 10:24:23;;;;;;;24.73;13.73;;;;;;;;;;6265401;28;20044;-76
2024/02/19 10:27:28;;;;;;;21.95;11.93;;;;;;;;;;6283708;28;20032;-77
2024/02/19 10:30:31;;;;;;;21.80;12.98;;;;;;;;;;6242207;28;20040;-76
2024/02/19 10:33:35;;;;;;;20.30;10.70;;;;;;;;;;6257820;28;20950;-76
2024/02/19 10:36:38;;;;;;;21.55;11.65;;;;;;;;;;6268900;28;20056;-76
2024/02/19 10:39:40;;;;;;;22.35;10.13;;;;;;;;;;6263156;28;20071;-76
2024/02/19 10:42:42;;;;;;;19.27;10.35;;;;;;;;;;6241352;28;20053;-77
2024/02/19 10:45:47;;;;;;;19.45;10.80;;;;;;;;;;6265187;28;20044;-76
2024/02/19 10:48:52;;;;;;;23.48;13.55;;;;;;;;;;6243655;28;20052;-77
2024/02/19 10:51:56;;;;;;;17.92;10.13;;;;;;;;;;6265414;28;20611;-79
2024/02/19 10:55:00;;;;;;;19.40;10.43;;;;;;;;;;6257191;28;20036;-76
2024/02/19 10:58:15;;;;;;;18.42;9.77;;;;;;;;;;6279481;28;20045;-75
2024/02/19 11:01:18;;;;;;;17.90;7.97;;;;;;;;;;6251761;28;20048;-77
2024/02/19 11:04:25;;;;;;;16.58;9.63;;;;;;;;;;6263903;28;20048;-77
2024/02/19 11:07:32;;;;;;;18.73;10.82;;;;;;;;;;6263017;28;20056;-76
2024/02/19 11:10:40;;;;;;;16.42;8.55;;;;;;;;;;6281223;28;20036;-76
2024/02/19 11:13:46;;;;;;;18.88;9.63;;;;;;;;;;6233865;28;20051;-76
2024/02/19 11:16:49;;;;;;;16.85;10.55;;;;;;;;;;6228516;28;20118;-76
2024/02/19 11:19:53;;;;;;;18.42;9.52;;;;;;;;;;6280190;28;20044;-76
2024/02/19 11:22:56;;;;;;;18.63;9.43;;;;;;;;;;6263304;28;20744;-76
2024/02/19 11:26:00;;;;;;;18.95;9.77;;;;;;;;;;6255187;28;20052;-76
2024/02/19 11:29:02;;;;;;;19.60;9.68;;;;;;;;;;6250642;28;20182;-76
2024/02/19 11:32:05;;;;;;;16.50;8.82;;;;;;;;;;6261275;28;20064;-76
2024/02/19 11:35:12;;;;;;;16.02;9.65;;;;;;;;;;6230711;28;20560;-76
2024/02/19 11:38:14;;;;;;;17.95;8.85;;;;;;;;;;6282774;28;20087;-76
2024/02/19 11:41:16;;;;;;;16.67;9.43;;;;;;;;;;6260846;28;20482;-76
2024/02/19 11:44:19;;;;;;;16.40;8.75;;;;;;;;;;6246854;28;20076;-76
2024/02/19 11:47:21;;;;;;;18.27;10.25;;;;;;;;;;6244763;28;20060;-76
2024/02/19 11:50:30;;;;;;;19.50;9.05;;;;;;;;;;6244993;28;20122;-76
2024/02/19 11:53:32;;;;;;;20.30;10.40;;;;;;;;;;6248160;28;20048;-76
2024/02/19 11:57:05;;;;;;;20.05;9.38;;;;;;;;;;6264966;28;20048;-76
2024/02/19 12:00:09;;;;;;;19.23;9.85;;;;;;;;;;6230315;28;20051;-76
2024/02/19 12:03:13;;;;;;;18.17;8.63;;;;;;;;;;6260989;28;20066;-76
2024/02/19 12:06:15;;;;;;;17.25;9.48;;;;;;;;;;6266459;28;20040;-76
2024/02/19 12:09:19;;;;;;;18.63;9.32;;;;;;;;;;6266160;28;20039;-76
2024/02/19 12:12:21;;;;;;;18.63;9.75;;;;;;;;;;6267578;28;20053;-76
2024/02/19 12:15:23;;;;;;;15.88;8.27;;;;;;;;;;6288533;28;20048;-77
2024/02/19 12:18:27;;;;;;;15.27;7.97;;;;;;;;;;6245463;28;20132;-76
2024/02/19 12:21:29;;;;;;;14.00;7.70;;;;;;;;;;6274944;28;20570;-75
2024/02/19 12:24:31;;;;;;;13.15;7.45;;;;;;;;;;6273014;28;20055;-76
2024/02/19 12:27:34;;;;;;;14.90;9.02;;;;;;;;;;6229907;28;20055;-76
2024/02/19 12:30:36;;;;;;;17.42;8.82;;;;;;;;;;6249996;28;20045;-77
2024/02/19 12:33:38;;;;;;;17.10;9.07;;;;;;;;;;6253024;28;20051;-76
2024/02/19 12:36:40;;;;;;;13.82;8.40;;;;;;;;;;6244397;28;20060;-76
2024/02/19 12:39:45;;;;;;;15.55;9.23;;;;;;;;;;6262337;28;20780;-76
2024/02/19 12:42:47;;;;;;;18.25;9.75;;;;;;;;;;6277943;28;20052;-76
2024/02/19 12:45:49;;;;;;;14.52;8.20;;;;;;;;;;6258326;28;20069;-76
2024/02/19 12:48:52;;;;;;;14.15;8.80;;;;;;;;;;6262431;28;20064;-76
2024/02/19 12:51:57;;;;;;;15.50;8.32;;;;;;;;;;6241894;28;20086;-76
2024/02/19 12:54:59;;;;;;;13.85;8.30;;;;;;;;;;6232868;28;20604;-75
2024/02/19 12:58:01;;;;;;;15.50;9.30;;;;;;;;;;6260378;28;20841;-76
2024/02/19 13:01:05;;;;;;;14.27;7.78;;;;;;;;;;6279273;28;20547;-76
2024/02/19 13:04:21;;;;;;;15.30;8.82;;;;;;;;;;6247744;28;20791;-76
2024/02/19 13:07:30;;;;;;;16.88;9.40;;;;;;;;;;6250483;28;20048;-75
2024/02/19 13:10:33;;;;;;;12.82;7.53;;;;;;;;;;6274345;28;20063;-76
2024/02/19 13:13:36;;;;;;;16.38;9.77;;;;;;;;;;6248211;28;20056;-76
2024/02/19 13:16:38;;;;;;;14.32;8.90;;;;;;;;;;6263978;28;20056;-76
2024/02/19 13:19:40;;;;;;;14.77;8.63;;;;;;;;;;6256637;28;20051;-75
2024/02/19 13:22:43;;;;;;;15.02;10.20;;;;;;;;;;6257817;28;20128;-75
2024/02/19 13:25:45;;;;;;;16.38;9.55;;;;;;;;;;6267329;28;20113;-76
2024/02/19 13:28:47;;;;;;;16.23;11.18;;;;;;;;;;6264424;28;20044;-75
2024/02/19 13:31:49;;;;;;;20.02;9.70;;;;;;;;;;6267142;28;20140;-76
2024/02/19 13:34:52;;;;;;;16.83;9.13;;;;;;;;;;6265516;28;20117;-76
2024/02/19 13:37:56;;;;;;;15.35;8.88;;;;;;;;;;6266365;28;20128;-75
2024/02/19 13:41:03;;;;;;;20.45;11.23;;;;;;;;;;6266667;28;20040;-76
2024/02/19 13:44:08;;;;;;;22.23;12.75;;;;;;;;;;6238354;28;20898;-76
2024/02/19 13:47:11;;;;;;;15.48;8.55;;;;;;;;;;6244565;28;20056;-76
2024/02/19 13:50:14;;;;;;;18.38;9.82;;;;;;;;;;6268125;28;20044;-77
2024/02/19 13:53:18;;;;;;;20.65;10.98;;;;;;;;;;6265523;28;20133;-76
2024/02/19 13:56:20;;;;;;;25.15;14.52;;;;;;;;;;6248709;28;20153;-76
2024/02/19 13:59:24;;;;;;;18.45;10.80;;;;;;;;;;6280370;28;20423;-77
2024/02/19 14:02:29;;;;;;;15.60;10.60;;;;;;;;;;6263035;28;20044;-77
2024/02/19 14:05:33;;;;;;;16.98;9.52;;;;;;;;;;6282634;28;20851;-76
2024/02/19 14:08:39;;;;;;;16.33;9.52;;;;;;;;;;6265037;28;20048;-77
2024/02/19 14:11:42;;;;;;;15.95;9.57;;;;;;;;;;6263654;28;20143;-76
2024/02/19 14:14:45;;;;;;;18.50;10.45;;;;;;;;;;6251634;28;20048;-76
2024/02/19 14:17:47;;;;;;;16.92;9.82;;;;;;;;;;6260026;28;20045;-77
2024/02/19 14:20:51;;;;;;;17.17;9.35;;;;;;;;;;6270514;28;20033;-77
2024/02/19 14:23:54;;;;;;;16.65;9.45;;;;;;;;;;6251028;28;20045;-77
2024/02/19 14:26:56;;;;;;;21.85;11.52;;;;;;;;;;6220274;28;20083;-77
2024/02/19 14:29:59;;;;;;;21.42;11.02;;;;;;;;;;6255476;28;20437;-77
2024/02/19 14:33:02;;;;;;;16.95;8.57;;;;;;;;;;6264399;28;20045;-75
2024/02/19 14:36:04;;;;;;;26.58;13.50;;;;;;;;;;6278862;28;20445;-76
2024/02/19 14:39:09;;;;;;;20.10;11.75;;;;;;;;;;6272871;28;20119;-77
2024/02/19 14:42:13;;;;;;;19.70;11.32;;;;;;;;;;6249686;28;20862;-76
2024/02/19 14:45:15;;;;;;;26.45;14.30;;;;;;;;;;6238936;28;20049;-76
2024/02/19 14:48:18;;;;;;;21.98;13.23;;;;;;;;;;6250515;28;20109;-76
2024/02/19 14:51:23;;;;;;;20.17;12.68;;;;;;;;;;6258226;28;20044;-76
2024/02/19 14:54:28;;;;;;;25.33;15.02;;;;;;;;;;6278531;28;20101;-76
2024/02/19 14:57:30;;;;;;;18.17;10.50;;;;;;;;;;6275789;28;20136;-74
2024/02/19 15:00:35;;;;;;;19.65;12.02;;;;;;;;;;6243275;28;20043;-75
2024/02/19 15:03:37;;;;;;;21.85;12.40;;;;;;;;;;6247054;28;20056;-76
2024/02/19 15:06:41;;;;;;;26.70;12.80;;;;;;;;;;6245253;28;20075;-77
2024/02/19 15:09:44;;;;;;;22.48;11.80;;;;;;;;;;6266547;28;20044;-76
2024/02/19 15:12:46;;;;;;;26.58;16.63;;;;;;;;;;6261234;28;20068;-76
2024/02/19 15:15:48;;;;;;;22.67;12.70;;;;;;;;;;6267857;28;20744;-76
2024/02/19 15:18:51;;;;;;;22.35;12.18;;;;;;;;;;6266720;28;20044;-76
2024/02/19 15:21:53;;;;;;;15.38;10.60;;;;;;;;;;6248598;28;20056;-75
2024/02/19 15:24:56;;;;;;;15.75;9.02;;;;;;;;;;6275813;28;20103;-74
2024/02/19 15:28:00;;;;;;;17.27;10.48;;;;;;;;;;6270612;28;20733;-76
2024/02/19 15:31:02;;;;;;;24.30;12.68;;;;;;;;;;6270107;28;20494;-76
2024/02/19 15:34:07;;;;;;;26.38;13.95;;;;;;;;;;6263269;28;20048;-76
2024/02/19 15:37:09;;;;;;;21.55;12.35;;;;;;;;;;6265020;28;20067;-75
2024/02/19 15:40:14;;;;;;;20.45;11.13;;;;;;;;;;6278976;28;20090;-76
2024/02/19 15:43:16;;;;;;;35.50;18.75;;;;;;;;;;6279131;28;20037;-75
2024/02/19 15:46:21;;;;;;;25.50;15.48;;;;;;;;;;6233529;28;20076;-76
2024/02/19 15:49:24;;;;;;;22.63;12.65;;;;;;;;;;6260615;28;20241;-76
2024/02/19 15:52:27;;;;;;;24.10;12.23;;;;;;;;;;6265149;28;20045;-76
2024/02/19 15:55:31;;;;;;;21.90;14.65;;;;;;;;;;6281376;28;20054;-75
2024/02/19 15:58:35;;;;;;;23.25;12.40;;;;;;;;;;6264955;28;20067;-75
2024/02/19 16:01:37;;;;;;;25.80;13.27;;;;;;;;;;6267944;28;20214;-75
2024/02/19 16:04:39;;;;;;;28.00;12.05;;;;;;;;;;6263566;28;20078;-75
2024/02/19 16:07:42;;;;;;;25.85;12.93;;;;;;;;;;6262298;28;20431;-75
2024/02/19 16:10:45;;;;;;;20.35;12.07;;;;;;;;;;6260514;28;20052;-75
2024/02/19 16:13:49;;;;;;;21.63;13.90;;;;;;;;;;6272088;28;20052;-75
2024/02/19 16:16:53;;;;;;;26.90;13.82;;;;;;;;;;6227344;28;20056;-76
2024/02/19 16:19:55;;;;;;;22.98;11.63;;;;;;;;;;6260291;28;20596;-75
2024/02/19 16:22:57;;;;;;;20.52;11.77;;;;;;;;;;6245684;28;20438;-75
2024/02/19 16:26:01;;;;;;;25.70;13.18;;;;;;;;;;6266390;28;20040;-75
2024/02/19 16:29:03;;;;;;;21.77;12.32;;;;;;;;;;6230044;28;20919;-75
2024/02/19 16:32:07;;;;;;;20.38;11.27;;;;;;;;;;6261561;28;20152;-76
2024/02/19 16:35:10;;;;;;;24.23;11.43;;;;;;;;;;6226674;28;20078;-76
2024/02/19 16:38:14;;;;;;;23.05;12.52;;;;;;;;;;6280045;28;20056;-76
2024/02/19 16:41:17;;;;;;;17.60;10.73;;;;;;;;;;6262112;28;20885;-76
2024/02/19 16:44:19;;;;;;;22.05;11.65;;;;;;;;;;6254456;28;21042;-76
2024/02/19 16:47:22;;;;;;;16.02;8.88;;;;;;;;;;6245812;28;20495;-75
2024/02/19 16:50:24;;;;;;;22.15;12.05;;;;;;;;;;6282382;28;20053;-75
2024/02/19 16:53:27;;;;;;;16.95;9.82;;;;;;;;;;6245041;28;20041;-75
2024/02/19 16:56:29;;;;;;;20.55;10.23;;;;;;;;;;6277890;28;20040;-75
2024/02/19 16:59:31;;;;;;;16.65;10.10;;;;;;;;;;6269532;28;20061;-75
2024/02/19 17:02:34;;;;;;;22.90;12.45;;;;;;;;;;6277074;28;20620;-75
2024/02/19 17:05:39;;;;;;;23.60;13.73;;;;;;;;;;6261849;28;20062;-75
2024/02/19 17:08:44;;;;;;;36.40;16.58;;;;;;;;;;6261509;28;20092;-75
2024/02/19 17:11:46;;;;;;;38.00;15.65;;;;;;;;;;6279546;28;20549;-75
2024/02/19 17:14:50;;;;;;;28.67;14.10;;;;;;;;;;6231362;28;20056;-75
2024/02/19 17:17:56;;;;;;;27.25;16.08;;;;;;;;;;6258693;28;20052;-75
2024/02/19 17:20:58;;;;;;;28.25;14.88;;;;;;;;;;6279242;28;20043;-75
2024/02/19 17:24:00;;;;;;;30.83;15.70;;;;;;;;;;6258382;28;20121;-75
2024/02/19 17:27:04;;;;;;;28.30;14.32;;;;;;;;;;6239084;28;20052;-75
2024/02/19 17:30:09;;;;;;;34.92;16.98;;;;;;;;;;6244113;28;20049;-75
2024/02/19 17:33:11;;;;;;;34.95;16.10;;;;;;;;;;6244913;28;20048;-75
2024/02/19 17:36:13;;;;;;;41.78;20.30;;;;;;;;;;6264863;28;20864;-74
2024/02/19 17:39:18;;;;;;;33.65;15.82;;;;;;;;;;6242888;28;20501;-75
2024/02/19 17:42:22;;;;;;;30.30;13.18;;;;;;;;;;6256174;28;20056;-74
2024/02/19 17:45:25;;;;;;;23.10;12.35;;;;;;;;;;6244117;28;20104;-75
2024/02/19 17:48:27;;;;;;;25.95;13.00;;;;;;;;;;6256510;28;20152;-74